createdAt,value
2019-04-22T00:01:24.822Z,100531.56
2019-04-22T00:03:01.542Z,100530.16
2019-04-22T00:04:49.683Z,100528.77
2019-04-22T00:06:31.194Z,100528.45
2019-04-22T00:08:09.095Z,100519.28
2019-04-22T00:09:54.928Z,100525.09
2019-04-22T00:11:29.061Z,100521.78
2019-04-22T00:13:06.674Z,100520.91
2019-04-22T00:14:42.019Z,100516.47
2019-04-22T00:16:27.449Z,100517.86
2019-04-22T00:18:07.785Z,100515.63
2019-04-22T00:19:37.218Z,100517.84
2019-04-22T00:21:12.722Z,100513.41
2019-04-22T00:22:44.375Z,100513.66
2019-04-22T00:24:27.355Z,100512.50
2019-04-22T00:26:12.631Z,100510.56
2019-04-22T00:29:46.693Z,100510.80
2019-04-22T00:31:00.718Z,100506.34
2019-04-22T00:32:49.529Z,100506.03
2019-04-22T00:34:29.800Z,100509.88
2019-04-22T00:36:12.272Z,100507.31
2019-04-22T00:37:53.338Z,100502.30
2019-04-22T00:39:33.743Z,100499.81
2019-04-22T00:41:00.837Z,100503.09
2019-04-22T00:42:40.960Z,100493.94
2019-04-22T00:44:20.712Z,100494.19
2019-04-22T00:45:53.989Z,100493.60
2019-04-22T00:49:55.360Z,100491.91
2019-04-22T00:50:48.346Z,100494.95
2019-04-22T00:52:21.764Z,100492.45
2019-04-22T00:54:03.819Z,100488.56
2019-04-22T00:55:39.175Z,100491.31
2019-04-22T00:57:15.348Z,100494.58
2019-04-22T00:59:11.487Z,100492.62
2019-04-22T01:00:41.191Z,100493.97
2019-04-22T01:02:13.080Z,100491.75
2019-04-22T01:03:59.045Z,100496.67
2019-04-22T01:05:34.424Z,100487.78
2019-04-22T01:07:09.247Z,100491.65
2019-04-22T01:08:53.308Z,100484.45
2019-04-22T01:10:25.867Z,100490.77
2019-04-22T01:12:00.129Z,100486.07
2019-04-22T01:13:38.682Z,100489.62
2019-04-22T01:15:21.194Z,100479.92
2019-04-22T01:16:56.412Z,100478.81
2019-04-22T01:18:32.573Z,100483.23
2019-04-22T01:20:17.548Z,100481.25
2019-04-22T01:21:44.831Z,100482.91
2019-04-22T01:23:24.045Z,100482.61
2019-04-22T01:25:06.844Z,100484.83
2019-04-22T01:26:35.541Z,100485.91
2019-04-22T01:28:14.238Z,100485.59
2019-04-22T01:29:46.594Z,100490.30
2019-04-22T01:31:19.118Z,100486.41
2019-04-22T01:32:54.304Z,100492.47
2019-04-22T01:34:40.068Z,100490.80
2019-04-22T01:36:24.542Z,100488.86
2019-04-22T01:38:01.509Z,100491.03
2019-04-22T01:39:43.561Z,100494.89
2019-04-22T01:41:22.997Z,100492.66
2019-04-22T01:43:03.455Z,100497.06
2019-04-22T01:44:40.342Z,100494.00
2019-04-22T01:46:19.745Z,100492.89
2019-04-22T01:47:49.390Z,100485.95
2019-04-22T01:49:27.590Z,100493.39
2019-04-22T01:51:02.115Z,100493.39
2019-04-22T01:52:46.932Z,100493.09
2019-04-22T01:54:29.787Z,100491.68
2019-04-22T01:55:58.692Z,100488.89
2019-04-22T01:57:39.785Z,100490.77
2019-04-22T01:59:05.117Z,100492.67
2019-04-22T02:00:58.221Z,100492.64
2019-04-22T02:02:32.114Z,100492.34
2019-04-22T02:04:08.833Z,100482.09
2019-04-22T02:05:43.835Z,100483.14
2019-04-22T02:07:23.550Z,100481.73
2019-04-22T02:09:02.039Z,100482.78
2019-04-22T02:10:40.413Z,100483.31
2019-04-22T02:12:17.252Z,100476.08
2019-04-22T02:13:52.721Z,100472.72
2019-04-22T02:15:47.842Z,100472.69
2019-04-22T02:17:09.201Z,100479.86
2019-04-22T02:18:47.544Z,100471.83
2019-04-22T02:20:23.373Z,100472.66
2019-04-22T02:21:56.541Z,100464.04
2019-04-22T02:23:47.106Z,100460.42
2019-04-22T02:25:18.164Z,100461.77
2019-04-22T02:26:53.014Z,100454.83
2019-04-22T02:30:13.914Z,100458.38
2019-04-22T02:35:23.339Z,100457.42
2019-04-22T02:36:54.395Z,100456.00
2019-04-22T02:38:42.148Z,100459.25
2019-04-22T02:39:58.010Z,100461.19
2019-04-22T02:41:30.943Z,100453.41
2019-04-22T02:43:14.573Z,100453.95
2019-04-22T02:44:46.663Z,100448.44
2019-04-22T02:47:59.281Z,100448.66
2019-04-22T02:51:16.255Z,100442.81
2019-04-22T02:57:39.845Z,100435.31
2019-04-22T03:01:07.530Z,100434.16
2019-04-22T03:02:50.668Z,100435.50
2019-04-22T03:06:07.917Z,100437.66
2019-04-22T03:07:23.463Z,100437.88
2019-04-22T03:12:23.676Z,100436.39
2019-04-22T03:15:48.297Z,100432.17
2019-04-22T03:17:18.528Z,100424.38
2019-04-22T03:19:07.998Z,100420.50
2019-04-22T03:20:29.254Z,100417.70
2019-04-22T03:22:08.884Z,100418.22
2019-04-22T03:27:02.962Z,100421.15
2019-04-22T03:28:49.841Z,100419.73
2019-04-22T03:30:41.880Z,100420.81
2019-04-22T03:35:31.109Z,100424.56
2019-04-22T03:37:09.545Z,100427.84
2019-04-22T03:38:43.520Z,100433.60
2019-04-22T03:40:16.156Z,100424.14
2019-04-22T03:43:23.837Z,100435.63
2019-04-22T03:45:02.904Z,100433.39
2019-04-22T03:46:47.639Z,100431.41
2019-04-22T03:48:09.301Z,100441.56
2019-04-22T03:49:56.450Z,100438.51
2019-04-22T03:51:38.894Z,100432.40
2019-04-22T03:53:09.860Z,100440.39
2019-04-22T03:54:45.601Z,100445.91
2019-04-22T03:56:37.262Z,100445.61
2019-04-22T03:57:53.938Z,100442.55
2019-04-22T03:59:54.076Z,100437.55
2019-04-22T04:06:00.061Z,100433.37
2019-04-22T04:12:37.797Z,100430.27
2019-04-22T04:14:21.872Z,100426.09
2019-04-22T04:15:41.022Z,100424.41
2019-04-22T04:17:29.283Z,100426.59
2019-04-22T04:19:07.597Z,100430.68
2019-04-22T04:20:44.754Z,100425.70
2019-04-22T04:22:30.427Z,100426.77
2019-04-22T04:27:37.175Z,100420.44
2019-04-22T04:30:30.057Z,100426.77
2019-04-22T04:32:18.881Z,100426.25
2019-04-22T04:33:54.399Z,100425.70
2019-04-22T04:37:09.045Z,100423.54
2019-04-22T04:38:36.372Z,100430.73
2019-04-22T04:41:57.044Z,100423.03
2019-04-22T04:43:25.778Z,100431.05
2019-04-22T04:46:44.768Z,100433.64
2019-04-22T04:48:14.383Z,100429.85
2019-04-22T04:51:33.115Z,100435.50
2019-04-22T04:53:20.960Z,100433.91
2019-04-22T04:54:47.780Z,100434.30
2019-04-22T04:56:34.412Z,100431.67
2019-04-22T04:58:13.951Z,100437.87
2019-04-22T05:00:03.780Z,100432.18
2019-04-22T05:01:23.179Z,100430.07
2019-04-22T05:02:52.391Z,100425.27
2019-04-22T05:04:43.695Z,100432.33
2019-04-22T05:12:55.768Z,100422.63
2019-04-22T05:14:19.009Z,100421.41
2019-04-22T05:16:04.457Z,100422.64
2019-04-22T05:17:43.908Z,100423.61
2019-04-22T05:19:07.618Z,100427.36
2019-04-22T05:20:53.480Z,100424.22
2019-04-22T05:22:34.079Z,100425.72
2019-04-22T05:24:03.787Z,100422.00
2019-04-22T05:25:27.239Z,100417.19
2019-04-22T05:27:19.695Z,100422.56
2019-04-22T05:28:44.964Z,100419.34
2019-04-22T05:32:03.118Z,100415.90
2019-04-22T05:33:41.811Z,100416.53
2019-04-22T05:35:23.102Z,100422.67
2019-04-22T05:36:55.438Z,100417.75
2019-04-22T05:38:35.809Z,100414.50
2019-04-22T05:40:16.689Z,100411.47
2019-04-22T05:41:43.385Z,100413.99
2019-04-22T05:43:21.307Z,100408.46
2019-04-22T05:45:02.957Z,100415.11
2019-04-22T05:46:34.420Z,100412.63
2019-04-22T05:48:15.764Z,100400.66
2019-04-22T05:49:51.395Z,100400.38
2019-04-22T05:51:31.546Z,100402.84
2019-04-22T05:53:01.751Z,100395.03
2019-04-22T05:54:38.618Z,100398.56
2019-04-22T05:56:28.707Z,100399.87
2019-04-22T05:57:59.053Z,100391.70
2019-04-22T05:59:42.258Z,100393.31
2019-04-22T06:02:52.948Z,100391.67
2019-04-22T06:04:29.488Z,100390.40
2019-04-22T06:06:08.988Z,100394.69
2019-04-22T06:07:41.790Z,100393.13
2019-04-22T06:09:27.506Z,100387.67
2019-04-22T06:10:58.108Z,100396.92
2019-04-22T06:12:35.712Z,100394.47
2019-04-22T06:14:18.998Z,100393.40
2019-04-22T06:15:52.981Z,100395.16
2019-04-22T06:17:42.486Z,100390.22
2019-04-22T06:19:13.747Z,100395.27
2019-04-22T06:22:41.738Z,100391.17
2019-04-22T06:26:00.495Z,100391.56
2019-04-22T06:29:01.268Z,100387.55
2019-04-22T06:30:41.755Z,100382.58
2019-04-22T06:32:26.371Z,100378.19
2019-04-22T06:33:56.458Z,100382.45
2019-04-22T06:35:36.744Z,100377.73
2019-04-22T06:37:12.828Z,100375.75
2019-04-22T06:38:46.729Z,100372.98
2019-04-22T06:40:27.545Z,100377.66
2019-04-22T06:42:00.543Z,100373.69
2019-04-22T06:43:42.887Z,100376.10
2019-04-22T06:45:18.787Z,100370.66
2019-04-22T06:46:52.431Z,100372.20
2019-04-22T06:48:31.695Z,100376.53
2019-04-22T06:50:08.050Z,100372.48
2019-04-22T06:51:46.840Z,100373.41
2019-04-22T06:53:25.151Z,100370.36
2019-04-22T06:54:59.399Z,100370.77
2019-04-22T06:56:36.479Z,100366.05
2019-04-22T06:58:16.709Z,100365.25
2019-04-22T06:59:56.733Z,100370.65
2019-04-22T07:01:31.855Z,100364.08
2019-04-22T07:04:44.591Z,100357.55
2019-04-22T07:06:26.209Z,100361.00
2019-04-22T07:08:11.593Z,100359.64
2019-04-22T07:11:08.537Z,100370.03
2019-04-22T07:12:49.204Z,100366.17
2019-04-22T07:14:22.473Z,100356.47
2019-04-22T07:16:07.709Z,100366.66
2019-04-22T07:17:50.817Z,100361.96
2019-04-22T07:19:21.900Z,100354.48
2019-04-22T07:21:01.395Z,100355.71
2019-04-22T07:22:38.911Z,100355.00
2019-04-22T07:24:27.484Z,100354.81
2019-04-22T07:25:54.156Z,100358.63
2019-04-22T07:27:27.508Z,100364.66
2019-04-22T07:29:07.446Z,100361.25
2019-04-22T07:30:51.203Z,100359.73
2019-04-22T07:32:20.625Z,100356.85
2019-04-22T07:34:13.616Z,100364.88
2019-04-22T07:35:51.624Z,100366.91
2019-04-22T07:38:49.149Z,100366.03
2019-04-22T07:40:39.980Z,100360.55
2019-04-22T07:42:12.680Z,100355.77
2019-04-22T07:44:07.435Z,100357.56
2019-04-22T07:45:28.144Z,100364.48
2019-04-22T07:47:04.877Z,100363.91
2019-04-22T07:50:31.204Z,100367.91
2019-04-22T07:51:50.277Z,100367.67
2019-04-22T07:53:29.010Z,100360.38
2019-04-22T07:55:25.813Z,100364.25
2019-04-22T07:56:48.543Z,100361.66
2019-04-22T07:58:27.380Z,100358.59
2019-04-22T08:00:02.991Z,100356.95
2019-04-22T08:01:38.626Z,100358.12
2019-04-22T08:03:18.377Z,100351.91
2019-04-22T08:06:30.901Z,100353.92
2019-04-22T08:08:14.599Z,100354.77
2019-04-22T08:09:54.206Z,100357.33
2019-04-22T08:11:37.203Z,100355.31
2019-04-22T08:12:57.988Z,100354.97
2019-04-22T08:14:34.588Z,100367.41
2019-04-22T08:16:10.776Z,100357.43
2019-04-22T08:19:26.928Z,100353.86
2019-04-22T08:21:07.463Z,100356.23
2019-04-22T08:22:42.669Z,100342.52
2019-04-22T08:24:22.824Z,100356.22
2019-04-22T08:25:59.483Z,100353.61
2019-04-22T08:27:35.619Z,100352.59
2019-04-22T08:29:14.450Z,100360.23
2019-04-22T08:32:29.996Z,100353.14
2019-04-22T08:34:08.119Z,100348.70
2019-04-22T08:37:41.627Z,100367.97
2019-04-22T08:40:45.511Z,100359.40
2019-04-22T08:42:17.932Z,100368.91
2019-04-22T08:45:32.132Z,100375.98
2019-04-22T08:47:16.194Z,100363.59
2019-04-22T08:48:45.954Z,100366.83
2019-04-22T08:51:13.627Z,100357.72
2019-04-22T08:52:01.012Z,100341.20
2019-04-22T08:53:45.172Z,100354.11
2019-04-22T08:55:22.013Z,100352.08
2019-04-22T08:58:32.780Z,100351.29
2019-04-22T09:00:24.250Z,100348.48
2019-04-22T09:01:37.798Z,100347.89
2019-04-22T09:03:16.313Z,100354.58
2019-04-22T09:04:53.896Z,100349.13
2019-04-22T09:08:16.900Z,100351.52
2019-04-22T09:09:53.957Z,100347.95
2019-04-22T09:11:37.354Z,100353.09
2019-04-22T09:13:10.198Z,100349.52
2019-04-22T09:14:43.488Z,100343.65
2019-04-22T09:16:29.501Z,100341.64
2019-04-22T09:18:03.047Z,100341.98
2019-04-22T09:19:35.116Z,100341.90
2019-04-22T09:21:22.665Z,100340.84
2019-04-22T09:22:56.944Z,100338.04
2019-04-22T09:24:29.251Z,100336.92
2019-04-22T09:26:12.243Z,100336.66
2019-04-22T09:27:42.959Z,100335.22
2019-04-22T09:31:01.306Z,100340.09
2019-04-22T09:32:38.692Z,100330.44
2019-04-22T09:34:13.795Z,100328.63
2019-04-22T09:36:00.081Z,100329.80
2019-04-22T09:37:34.561Z,100330.11
2019-04-22T09:39:10.572Z,100329.71
2019-04-22T09:40:45.696Z,100332.93
2019-04-22T09:42:24.426Z,100338.03
2019-04-22T09:43:58.330Z,100324.50
2019-04-22T09:45:34.553Z,100327.48
2019-04-22T09:47:11.670Z,100325.31
2019-04-22T09:49:04.740Z,100332.00
2019-04-22T09:50:40.480Z,100319.78
2019-04-22T09:52:11.570Z,100320.77
2019-04-22T09:53:54.812Z,100322.59
2019-04-22T09:55:26.284Z,100325.98
2019-04-22T09:57:04.038Z,100318.73
2019-04-22T09:58:39.423Z,100320.05
2019-04-22T10:00:16.940Z,100315.33
2019-04-22T10:02:08.130Z,100327.14
2019-04-22T10:03:25.997Z,100314.83
2019-04-22T10:05:17.338Z,100316.66
2019-04-22T10:06:48.430Z,100319.86
2019-04-22T10:08:31.660Z,100326.22
2019-04-22T10:11:37.732Z,100314.17
2019-04-22T10:13:23.888Z,100315.57
2019-04-22T10:18:11.245Z,100320.59
2019-04-22T10:21:27.353Z,100322.95
2019-04-22T10:22:57.469Z,100314.70
2019-04-22T10:24:31.998Z,100318.17
2019-04-22T10:26:14.343Z,100315.92
2019-04-22T10:27:56.856Z,100324.18
2019-04-22T10:29:38.632Z,100320.34
2019-04-22T10:31:14.525Z,100315.52
2019-04-22T10:32:44.678Z,100306.44
2019-04-22T10:34:10.580Z,100315.36
2019-04-22T10:35:34.520Z,100316.58
2019-04-22T10:37:14.411Z,100314.75
2019-04-22T10:38:48.717Z,100318.31
2019-04-22T10:40:28.018Z,100309.80
2019-04-22T10:42:04.910Z,100304.55
2019-04-22T10:43:41.246Z,100307.64
2019-04-22T10:45:18.516Z,100303.70
2019-04-22T10:46:54.077Z,100341.27
2019-04-22T10:48:30.303Z,100306.11
2019-04-22T10:50:12.279Z,100300.30
2019-04-22T10:51:48.739Z,100307.15
2019-04-22T10:53:25.664Z,100301.66
2019-04-22T10:55:01.547Z,100290.19
2019-04-22T10:56:38.996Z,100295.80
2019-04-22T10:58:16.954Z,100316.62
2019-04-22T11:01:57.401Z,100294.87
2019-04-22T11:03:33.278Z,100302.72
2019-04-22T11:05:10.322Z,100291.41
2019-04-22T11:06:53.145Z,100298.27
2019-04-22T11:08:32.247Z,100301.32
2019-04-22T11:10:18.003Z,100293.14
2019-04-22T11:11:46.671Z,100287.31
2019-04-22T11:13:15.970Z,100282.34
2019-04-22T11:14:51.860Z,100274.51
2019-04-22T11:16:27.915Z,100263.44
2019-04-22T11:18:03.522Z,100274.52
2019-04-22T11:19:39.480Z,100275.69
2019-04-22T11:21:15.734Z,100277.48
2019-04-22T11:22:53.200Z,100279.39
2019-04-22T11:24:28.784Z,100269.47
2019-04-22T11:26:05.567Z,100275.63
2019-04-22T11:27:44.176Z,100273.28
2019-04-22T11:29:19.584Z,100272.62
2019-04-22T11:30:56.405Z,100269.41
2019-04-22T11:32:32.749Z,100262.15
2019-04-22T11:34:08.911Z,100262.83
2019-04-22T11:35:45.913Z,100258.96
2019-04-22T11:37:22.676Z,100261.76
2019-04-22T11:39:02.522Z,100254.56
2019-04-22T11:40:41.741Z,100255.41
2019-04-22T11:42:16.320Z,100250.56
2019-04-22T11:43:54.040Z,100256.88
2019-04-22T11:45:31.109Z,100266.61
2019-04-22T11:47:09.321Z,100256.36
2019-04-22T11:48:47.861Z,100253.75
2019-04-22T11:50:26.143Z,100255.38
2019-04-22T11:52:01.913Z,100250.55
2019-04-22T11:53:38.665Z,100245.45
2019-04-22T11:55:17.131Z,100246.29
2019-04-22T11:56:56.791Z,100251.96
2019-04-22T11:58:33.156Z,100247.64
2019-04-22T12:00:12.667Z,100242.44
2019-04-22T12:01:49.066Z,100256.55
2019-04-22T12:03:25.314Z,100248.92
2019-04-22T12:05:01.873Z,100236.54
2019-04-22T12:06:37.904Z,100254.98
2019-04-22T12:08:17.314Z,100254.27
2019-04-22T12:09:53.392Z,100257.13
2019-04-22T12:11:30.250Z,100264.88
2019-04-22T12:13:06.308Z,100247.73
2019-04-22T12:14:42.439Z,100242.14
2019-04-22T12:16:21.207Z,100257.46
2019-04-22T12:18:04.616Z,100241.03
2019-04-22T12:19:57.979Z,100243.96
2019-04-22T12:21:31.184Z,100243.24
2019-04-22T12:23:07.383Z,100245.91
2019-04-22T12:24:43.209Z,100242.42
2019-04-22T12:26:22.660Z,100234.39
2019-04-22T12:27:57.428Z,100229.77
2019-04-22T12:29:33.220Z,100228.16
2019-04-22T12:31:09.407Z,100242.51
2019-04-22T12:32:45.558Z,100224.24
2019-04-22T12:34:21.559Z,100229.25
2019-04-22T12:35:57.211Z,100230.39
2019-04-22T12:37:40.655Z,100233.67
2019-04-22T12:39:11.625Z,100234.52
2019-04-22T12:40:55.262Z,100231.25
2019-04-22T12:42:25.209Z,100228.45
2019-04-22T12:44:01.066Z,100231.11
2019-04-22T12:45:38.230Z,100203.92
2019-04-22T12:47:14.939Z,100218.52
2019-04-22T12:48:51.962Z,100205.98
2019-04-22T12:50:32.923Z,100209.91
2019-04-22T12:52:07.272Z,100201.80
2019-04-22T12:53:45.849Z,100203.80
2019-04-22T12:55:21.853Z,100198.86
2019-04-22T12:56:57.785Z,100177.75
2019-04-22T12:58:33.888Z,100197.41
2019-04-22T13:00:13.451Z,100199.67
2019-04-22T13:01:52.961Z,100211.58
2019-04-22T13:03:28.790Z,100200.31
2019-04-22T13:05:06.295Z,100195.92
2019-04-22T13:06:42.024Z,100202.72
2019-04-22T13:08:18.041Z,100193.11
2019-04-22T13:09:55.127Z,100186.52
2019-04-22T13:11:34.840Z,100191.20
2019-04-22T13:13:09.181Z,100194.27
2019-04-22T13:14:45.519Z,100176.69
2019-04-22T13:16:22.785Z,100178.17
2019-04-22T13:18:09.974Z,100177.39
2019-04-22T13:19:38.427Z,100179.20
2019-04-22T13:21:14.965Z,100175.61
2019-04-22T13:22:50.739Z,100168.76
2019-04-22T13:24:27.865Z,100177.36
2019-04-22T13:26:05.145Z,100175.52
2019-04-22T13:27:40.815Z,100183.39
2019-04-22T13:29:19.128Z,100215.66
2019-04-22T13:30:57.491Z,100185.85
2019-04-22T13:32:34.637Z,100165.39
2019-04-22T13:34:19.901Z,100230.91
2019-04-22T13:35:48.057Z,100183.02
2019-04-22T13:37:25.211Z,100173.55
2019-04-22T13:39:00.909Z,100204.17
2019-04-22T13:40:40.490Z,100183.61
2019-04-22T13:42:19.376Z,100157.61
2019-04-22T13:43:53.873Z,100180.88
2019-04-22T13:45:29.832Z,100168.54
2019-04-22T13:47:20.743Z,100171.73
2019-04-22T13:49:06.034Z,100182.92
2019-04-22T13:52:45.116Z,100181.60
2019-04-22T13:57:14.827Z,100165.80
2019-04-22T13:58:44.820Z,100178.12
2019-04-22T14:00:16.359Z,100182.45
2019-04-22T14:01:56.521Z,100155.13
2019-04-22T14:03:48.962Z,100179.31
2019-04-22T14:05:28.876Z,100153.30
2019-04-22T14:07:05.157Z,100179.29
2019-04-22T14:08:41.037Z,100161.09
2019-04-22T14:10:18.358Z,100178.52
2019-04-22T14:12:00.154Z,100155.95
2019-04-22T14:13:32.329Z,100145.85
2019-04-22T14:15:09.857Z,100154.55
2019-04-22T14:16:46.973Z,100155.84
2019-04-22T14:18:24.972Z,100160.15
2019-04-22T14:20:00.836Z,100171.12
2019-04-22T14:21:43.872Z,100168.66
2019-04-22T14:23:20.511Z,100160.77
2019-04-22T14:24:56.619Z,100159.13
2019-04-22T14:26:52.403Z,100163.95
2019-04-22T14:28:19.324Z,100151.77
2019-04-22T14:29:55.626Z,100142.57
2019-04-22T14:31:33.287Z,100146.38
2019-04-22T14:33:09.876Z,100143.14
2019-04-22T14:34:46.924Z,100139.50
2019-04-22T14:36:23.429Z,100139.77
2019-04-22T14:38:01.331Z,100156.02
2019-04-22T14:39:39.914Z,100145.77
2019-04-22T14:41:32.724Z,100137.12
2019-04-22T14:43:13.814Z,100148.55
2019-04-22T14:46:33.485Z,100119.41
2019-04-22T14:48:12.072Z,100135.33
2019-04-22T14:49:47.214Z,100128.50
2019-04-22T14:51:25.493Z,100127.97
2019-04-22T14:53:04.038Z,100143.19
2019-04-22T14:54:31.309Z,100147.23
2019-04-22T14:55:54.762Z,100118.69
2019-04-22T14:57:32.308Z,100126.97
2019-04-22T14:59:13.497Z,100126.33
2019-04-22T15:00:51.886Z,100124.03
2019-04-22T15:02:28.057Z,100117.61
2019-04-22T15:04:03.691Z,100127.45
2019-04-22T15:05:40.049Z,100123.09
2019-04-22T15:07:16.922Z,100123.90
2019-04-22T15:08:54.523Z,100133.13
2019-04-22T15:10:30.048Z,100132.20
2019-04-22T15:12:18.212Z,100139.67
2019-04-22T15:13:47.442Z,100132.43
2019-04-22T15:15:23.648Z,100138.27
2019-04-22T15:17:18.593Z,100128.21
2019-04-22T15:19:14.129Z,100123.11
2019-04-22T15:20:54.638Z,100131.55
2019-04-22T15:22:30.846Z,100133.03
2019-04-22T15:24:25.422Z,100153.16
2019-04-22T15:26:04.444Z,100127.77
2019-04-22T15:27:41.832Z,100137.56
2019-04-22T15:29:17.976Z,100128.66
2019-04-22T15:30:53.611Z,100133.38
2019-04-22T15:32:31.657Z,100111.36
2019-04-22T15:34:07.541Z,100116.13
2019-04-22T15:35:55.518Z,100113.27
2019-04-22T15:37:35.134Z,100114.57
2019-04-22T15:39:13.538Z,100129.16
2019-04-22T15:40:49.828Z,100135.90
2019-04-22T15:42:30.413Z,100108.81
2019-04-22T15:44:03.733Z,100115.44
2019-04-22T15:45:41.114Z,100110.13
2019-04-22T15:47:16.858Z,100126.03
2019-04-22T15:49:02.114Z,100143.29
2019-04-22T15:50:44.551Z,100113.73
2019-04-22T15:52:30.614Z,100116.52
2019-04-22T15:53:59.756Z,100102.63
2019-04-22T15:55:38.922Z,100107.12
2019-04-22T15:57:17.166Z,100105.95
2019-04-22T15:58:53.495Z,100114.04
2019-04-22T16:00:40.690Z,100097.68
2019-04-22T16:02:08.248Z,100096.80
2019-04-22T16:03:44.846Z,100094.97
2019-04-22T16:05:22.245Z,100100.84
2019-04-22T16:07:01.228Z,100093.97
2019-04-22T16:08:38.995Z,100089.52
2019-04-22T16:10:15.753Z,100092.38
2019-04-22T16:11:54.237Z,100087.67
2019-04-22T16:13:37.981Z,100095.02
2019-04-22T16:15:20.323Z,100099.34
2019-04-22T16:16:58.936Z,100100.77
2019-04-22T16:18:50.621Z,100097.64
2019-04-22T16:20:30.081Z,100083.14
2019-04-22T16:22:17.095Z,100100.62
2019-04-22T16:24:36.154Z,100088.09
2019-04-22T16:26:03.184Z,100088.90
2019-04-22T16:31:39.934Z,100087.86
2019-04-22T16:33:15.542Z,100089.36
2019-04-22T16:34:52.435Z,100076.87
2019-04-22T16:36:29.018Z,100097.50
2019-04-22T16:38:04.739Z,100086.10
2019-04-22T16:39:41.999Z,100105.37
2019-04-22T16:41:19.100Z,100090.04
2019-04-22T16:42:58.619Z,100103.98
2019-04-22T16:44:32.345Z,100078.44
2019-04-22T16:46:07.884Z,100077.11
2019-04-22T16:47:43.968Z,100080.17
2019-04-22T16:49:21.459Z,100073.17
2019-04-22T16:50:58.453Z,100070.70
2019-04-22T16:52:34.325Z,100070.63
2019-04-22T16:54:11.672Z,100074.26
2019-04-22T16:55:48.737Z,100062.93
2019-04-22T16:57:26.022Z,100068.22
2019-04-22T16:59:01.643Z,100067.68
2019-04-22T17:00:38.511Z,100075.72
2019-04-22T17:02:16.811Z,100068.16
2019-04-22T17:04:12.072Z,100060.08
2019-04-22T17:06:07.912Z,100072.80
2019-04-22T17:07:44.399Z,100060.55
2019-04-22T17:09:21.615Z,100060.86
2019-04-22T17:10:57.684Z,100068.05
2019-04-22T17:12:45.734Z,100061.36
2019-04-22T17:14:11.302Z,100056.30
2019-04-22T17:15:47.321Z,100065.23
2019-04-22T17:17:24.529Z,100066.01
2019-04-22T17:19:00.600Z,100101.92
2019-04-22T17:20:36.411Z,100065.97
2019-04-22T17:22:13.266Z,100056.53
2019-04-22T17:23:49.880Z,100061.80
2019-04-22T17:25:26.606Z,100064.54
2019-04-22T17:27:04.353Z,100070.38
2019-04-22T17:28:40.000Z,100065.59
2019-04-22T17:30:17.336Z,100063.42
2019-04-22T17:31:58.276Z,100070.38
2019-04-22T17:33:30.861Z,100066.05
2019-04-22T17:35:08.505Z,100075.04
2019-04-22T17:36:44.698Z,100068.39
2019-04-22T17:38:30.116Z,100073.41
2019-04-22T17:40:14.685Z,100070.13
2019-04-22T17:41:55.232Z,100070.94
2019-04-22T17:43:42.070Z,100079.59
2019-04-22T17:45:15.788Z,100069.58
2019-04-22T17:46:51.369Z,100070.70
2019-04-22T17:48:43.131Z,100071.55
2019-04-22T17:50:17.129Z,100072.66
2019-04-22T17:52:15.659Z,100081.31
2019-04-22T17:53:55.013Z,100075.79
2019-04-22T17:55:31.649Z,100079.18
2019-04-22T17:57:02.091Z,100071.68
2019-04-22T17:58:48.437Z,100080.84
2019-04-22T18:00:14.369Z,100083.89
2019-04-22T18:01:53.568Z,100076.16
2019-04-22T18:03:21.630Z,100085.05
2019-04-22T18:04:56.277Z,100078.43
2019-04-22T18:07:00.415Z,100080.40
2019-04-22T18:08:27.114Z,100085.99
2019-04-22T18:12:01.136Z,100076.53
2019-04-22T18:13:28.237Z,100084.63
2019-04-22T18:14:59.524Z,100096.33
2019-04-22T18:16:32.622Z,100079.12
2019-04-22T18:18:12.339Z,100081.67
2019-04-22T18:19:46.003Z,100069.52
2019-04-22T18:21:25.492Z,100076.23
2019-04-22T18:22:54.440Z,100082.09
2019-04-22T18:24:28.055Z,100074.87
2019-04-22T18:26:12.615Z,100083.21
2019-04-22T18:27:59.043Z,100087.69
2019-04-22T18:29:29.920Z,100079.38
2019-04-22T18:31:01.140Z,100081.06
2019-04-22T18:32:45.362Z,100089.44
2019-04-22T18:34:19.071Z,100091.36
2019-04-22T18:36:02.265Z,100090.85
2019-04-22T18:37:40.889Z,100087.50
2019-04-22T18:40:53.409Z,100084.74
2019-04-22T18:42:24.186Z,100085.04
2019-04-22T18:44:11.382Z,100091.45
2019-04-22T18:45:52.740Z,100094.22
2019-04-22T18:47:18.692Z,100085.91
2019-04-22T18:49:00.590Z,100091.23
2019-04-22T18:50:56.283Z,100096.22
2019-04-22T18:52:37.927Z,100086.78
2019-04-22T18:54:18.349Z,100083.73
2019-04-22T18:55:52.734Z,100082.07
2019-04-22T18:57:27.320Z,100088.23
2019-04-22T18:58:59.476Z,100086.59
2019-04-22T19:00:39.629Z,100082.15
2019-04-22T19:02:18.102Z,100090.22
2019-04-22T19:04:01.367Z,100086.34
2019-04-22T19:05:46.811Z,100087.49
2019-04-22T19:07:36.797Z,100086.39
2019-04-22T19:09:13.790Z,100095.60
2019-04-22T19:11:00.697Z,100090.34
2019-04-22T19:12:43.977Z,100087.83
2019-04-22T19:14:06.077Z,100089.22
2019-04-22T19:15:36.630Z,100084.81
2019-04-22T19:17:27.237Z,100093.69
2019-04-22T19:19:05.881Z,100085.92
2019-04-22T19:20:37.944Z,100091.48
2019-04-22T19:22:06.719Z,100084.56
2019-04-22T19:23:45.052Z,100088.45
2019-04-22T19:25:17.480Z,100093.73
2019-04-22T19:26:58.809Z,100093.76
2019-04-22T19:28:42.274Z,100089.31
2019-04-22T19:30:16.400Z,100084.91
2019-04-22T19:31:51.944Z,100085.20
2019-04-22T19:33:28.741Z,100089.39
2019-04-22T19:35:04.965Z,100081.59
2019-04-22T19:36:48.505Z,100081.63
2019-04-22T19:38:15.528Z,100084.40
2019-04-22T19:40:10.443Z,100086.91
2019-04-22T19:41:56.520Z,100089.44
2019-04-22T19:43:15.509Z,100082.76
2019-04-22T19:44:55.396Z,100085.27
2019-04-22T19:46:28.334Z,100087.77
2019-04-22T19:48:16.649Z,100078.61
2019-04-22T19:49:52.867Z,100078.64
2019-04-22T19:51:29.471Z,100085.88
2019-04-22T19:52:59.545Z,100081.44
2019-04-22T19:54:37.561Z,100076.75
2019-04-22T19:56:13.829Z,100078.16
2019-04-22T19:57:47.854Z,100078.45
2019-04-22T19:59:23.534Z,100075.70
2019-04-22T20:01:08.791Z,100075.15
2019-04-22T20:03:15.720Z,100076.02
2019-04-22T20:04:52.802Z,100076.85
2019-04-22T20:06:33.592Z,100074.93
2019-04-22T20:08:12.775Z,100076.09
2019-04-22T20:09:49.292Z,100078.61
2019-04-22T20:11:22.699Z,100077.52
2019-04-22T20:12:56.676Z,100072.28
2019-04-22T20:14:41.846Z,100073.12
2019-04-22T20:16:06.498Z,100075.06
2019-04-22T20:18:14.485Z,100070.91
2019-04-22T20:19:41.423Z,100071.47
2019-04-22T20:21:12.972Z,100061.77
2019-04-22T20:22:44.806Z,100058.20
2019-04-22T20:24:12.948Z,100062.91
2019-04-22T20:25:58.006Z,100062.66
2019-04-22T20:27:44.221Z,100061.83
2019-04-22T20:29:20.908Z,100054.91